createdAt,value
2019-06-20T00:02:04.399Z,58.64
2019-06-20T00:04:39.114Z,57.64
2019-06-20T00:07:11.027Z,58.01
2019-06-20T00:09:42.795Z,59.00
2019-06-20T00:12:14.533Z,59.40
2019-06-20T00:14:46.271Z,60.42
2019-06-20T00:17:18.009Z,61.41
2019-06-20T00:19:50.688Z,61.80
2019-06-20T00:22:22.426Z,62.40
2019-06-20T00:24:54.191Z,63.66
2019-06-20T00:27:25.940Z,62.13
2019-06-20T00:29:57.804Z,60.75
2019-06-20T00:32:29.512Z,59.49
2019-06-20T00:35:01.372Z,58.30
2019-06-20T00:37:33.017Z,57.27
2019-06-20T00:40:11.243Z,57.82
2019-06-20T00:42:43.553Z,58.65
2019-06-20T00:45:15.947Z,59.65
2019-06-20T00:47:47.762Z,60.25
2019-06-20T00:50:20.423Z,61.26
2019-06-20T00:52:52.157Z,61.79
2019-06-20T00:55:24.255Z,61.88
2019-06-20T00:57:56.873Z,62.96
2019-06-20T01:00:29.773Z,63.82
2019-06-20T01:03:02.088Z,62.67
2019-06-20T01:05:34.064Z,61.56
2019-06-20T01:08:05.857Z,60.33
2019-06-20T01:10:37.856Z,59.17
2019-06-20T01:13:09.592Z,58.36
2019-06-20T01:15:41.372Z,58.99
2019-06-20T01:18:13.412Z,59.97
2019-06-20T01:20:46.106Z,61.03
2019-06-20T01:23:17.840Z,61.75
2019-06-20T01:25:49.607Z,62.70
2019-06-20T01:28:21.649Z,63.68
2019-06-20T01:30:53.508Z,62.48
2019-06-20T01:33:25.246Z,61.08
2019-06-20T01:35:57.007Z,59.92
2019-06-20T01:38:28.746Z,58.69
2019-06-20T01:41:00.772Z,57.74
2019-06-20T01:43:32.511Z,58.38
2019-06-20T01:46:04.371Z,59.06
2019-06-20T01:48:36.393Z,60.13
2019-06-20T01:51:08.157Z,60.50
2019-06-20T01:53:39.928Z,61.17
2019-06-20T01:56:11.633Z,62.63
2019-06-20T01:58:44.340Z,63.30
2019-06-20T02:01:16.277Z,61.75
2019-06-20T02:03:48.116Z,60.64
2019-06-20T02:06:19.996Z,59.41
2019-06-20T02:08:51.724Z,58.44
2019-06-20T02:11:23.485Z,59.14
2019-06-20T02:14:06.728Z,59.86
2019-06-20T02:16:28.777Z,60.79
2019-06-20T02:19:00.524Z,61.42
2019-06-20T02:21:33.228Z,61.84
2019-06-20T02:24:05.242Z,63.18
2019-06-20T02:26:37.109Z,62.45
2019-06-20T02:29:08.849Z,61.03
2019-06-20T02:31:40.616Z,59.72
2019-06-20T02:34:15.289Z,58.35
2019-06-20T02:36:47.530Z,57.47
2019-06-20T02:39:19.248Z,58.20
2019-06-20T02:41:51.009Z,59.10
2019-06-20T02:44:29.871Z,59.83
2019-06-20T02:46:56.764Z,60.53
2019-06-20T02:49:28.409Z,61.67
2019-06-20T02:52:00.803Z,62.24
2019-06-20T02:54:33.043Z,63.16
2019-06-20T02:57:04.910Z,63.40
2019-06-20T02:59:36.649Z,62.73
2019-06-20T03:02:08.423Z,61.35
2019-06-20T03:04:40.170Z,60.28
2019-06-20T03:07:11.929Z,59.01
2019-06-20T03:09:43.666Z,58.16
2019-06-20T03:12:15.669Z,58.98
2019-06-20T03:14:47.509Z,59.89
2019-06-20T03:17:19.283Z,60.69
2019-06-20T03:19:51.989Z,61.75
2019-06-20T03:22:24.564Z,62.42
2019-06-20T03:24:56.407Z,63.49
2019-06-20T03:27:28.159Z,62.39
2019-06-20T03:29:59.901Z,61.27
2019-06-20T03:32:31.677Z,59.97
2019-06-20T03:35:04.534Z,58.65
2019-06-20T03:37:37.177Z,57.76
2019-06-20T03:40:10.217Z,58.69
2019-06-20T03:42:41.963Z,59.48
2019-06-20T03:45:14.503Z,59.96
2019-06-20T03:47:46.256Z,61.09
2019-06-20T03:50:18.074Z,61.61
2019-06-20T03:52:51.451Z,62.33
2019-06-20T03:55:23.738Z,62.40
2019-06-20T03:57:55.404Z,62.48
2019-06-20T04:00:34.473Z,60.75
2019-06-20T04:03:08.471Z,58.86
2019-06-20T04:05:40.206Z,57.63
2019-06-20T04:08:12.099Z,58.10
2019-06-20T04:10:43.788Z,58.78
2019-06-20T04:13:16.737Z,57.96
2019-06-20T04:15:48.450Z,57.52
2019-06-20T04:18:20.212Z,56.93
2019-06-20T04:20:51.954Z,56.24
2019-06-20T04:23:24.681Z,55.30
2019-06-20T04:25:56.888Z,53.94
2019-06-20T04:28:28.847Z,51.40
2019-06-20T04:31:00.686Z,48.31
2019-06-20T04:33:32.658Z,47.76
2019-06-20T04:36:04.398Z,46.20
2019-06-20T04:38:36.176Z,45.53
2019-06-20T04:41:07.912Z,44.51
2019-06-20T04:43:39.681Z,44.64
2019-06-20T04:46:13.073Z,44.25
2019-06-20T04:48:44.763Z,43.89
2019-06-20T04:51:16.404Z,42.15
2019-06-20T04:53:48.266Z,40.78
2019-06-20T04:56:20.263Z,38.24
2019-06-20T04:58:52.127Z,36.96
2019-06-20T05:01:23.802Z,35.41
2019-06-20T05:03:55.568Z,36.03
2019-06-20T05:06:27.295Z,35.60
2019-06-20T05:08:59.147Z,36.79
2019-06-20T05:11:30.883Z,36.19
2019-06-20T05:14:03.831Z,34.63
2019-06-20T05:16:35.558Z,33.56
2019-06-20T05:19:07.431Z,32.37
2019-06-20T05:21:39.141Z,30.96
2019-06-20T05:24:11.793Z,30.26
2019-06-20T05:26:43.511Z,28.91
2019-06-20T05:29:17.082Z,28.26
2019-06-20T05:31:48.921Z,27.20
2019-06-20T05:34:27.826Z,25.30
2019-06-20T05:37:01.476Z,25.85
2019-06-20T05:39:33.102Z,24.95
2019-06-20T05:42:05.205Z,24.06
2019-06-20T05:44:36.946Z,23.42
2019-06-20T05:55:15.412Z,21.57
2019-06-20T05:57:47.221Z,21.01
2019-06-20T06:00:20.607Z,19.97
2019-06-20T06:02:52.654Z,19.71
2019-06-20T06:05:24.325Z,19.41
2019-06-20T06:07:56.142Z,19.03
2019-06-20T06:10:27.965Z,18.85
2019-06-20T06:13:03.096Z,18.75
2019-06-20T06:15:35.065Z,18.56
2019-06-20T06:18:08.083Z,18.30
2019-06-20T06:20:44.629Z,18.22
2019-06-20T06:23:14.633Z,17.92
2019-06-20T06:25:46.776Z,17.92
2019-06-20T06:28:18.462Z,17.72
2019-06-20T06:30:50.299Z,17.55
2019-06-20T06:33:22.234Z,17.01
2019-06-20T06:35:54.097Z,17.46
2019-06-20T06:38:28.950Z,16.79
2019-06-20T06:41:00.606Z,16.99
2019-06-20T06:43:32.344Z,17.20
2019-06-20T06:46:05.068Z,17.07
2019-06-20T06:48:36.799Z,16.88
2019-06-20T06:51:08.556Z,16.80
2019-06-20T06:53:40.297Z,16.96
2019-06-20T06:56:12.659Z,17.02
2019-06-20T06:58:44.496Z,16.31
2019-06-20T07:01:16.259Z,16.51
2019-06-20T07:03:48.000Z,16.63
2019-06-20T07:06:19.759Z,16.09
2019-06-20T07:08:51.533Z,16.24
2019-06-20T07:11:23.852Z,16.22
2019-06-20T07:13:55.672Z,16.48
2019-06-20T07:16:27.461Z,16.48
2019-06-20T07:18:59.208Z,16.48
2019-06-20T07:21:31.004Z,16.72
2019-06-20T07:24:02.640Z,16.37
2019-06-20T07:26:35.384Z,16.35
2019-06-20T07:29:07.190Z,16.33
2019-06-20T07:31:38.843Z,15.96
2019-06-20T07:34:10.605Z,16.94
2019-06-20T07:36:42.369Z,16.70
2019-06-20T07:39:14.136Z,16.88
2019-06-20T07:41:47.543Z,16.15
2019-06-20T07:44:19.545Z,15.94
2019-06-20T07:46:51.582Z,16.20
2019-06-20T07:49:23.330Z,16.51
2019-06-20T07:51:55.081Z,17.09
2019-06-20T07:54:26.823Z,17.17
2019-06-20T07:56:58.577Z,16.28
2019-06-20T07:59:30.350Z,17.28
2019-06-20T08:02:02.287Z,16.98
2019-06-20T08:04:35.141Z,16.66
2019-06-20T08:07:06.847Z,16.91
2019-06-20T08:09:44.678Z,16.01
2019-06-20T08:12:12.204Z,16.77
2019-06-20T08:14:43.932Z,17.26
2019-06-20T08:17:15.805Z,17.13
2019-06-20T08:19:47.555Z,17.19
2019-06-20T08:22:19.296Z,17.72
2019-06-20T08:24:53.207Z,18.16
2019-06-20T08:27:43.323Z,18.90
2019-06-20T08:30:15.397Z,19.80
2019-06-20T08:32:47.153Z,19.83
2019-06-20T08:35:22.511Z,20.50
2019-06-20T08:37:57.811Z,21.16
2019-06-20T08:40:33.110Z,21.31
2019-06-20T08:43:06.278Z,22.53
2019-06-20T08:45:40.934Z,22.80
2019-06-20T08:48:13.341Z,22.99
2019-06-20T08:50:45.611Z,23.30
2019-06-20T08:53:17.789Z,23.64
2019-06-20T08:55:49.917Z,24.27
2019-06-20T08:58:21.570Z,24.57
2019-06-20T09:00:55.924Z,24.54
2019-06-20T09:03:27.998Z,24.56
2019-06-20T09:08:32.987Z,23.23
2019-06-20T09:11:04.776Z,24.20
2019-06-20T09:13:36.539Z,24.26
2019-06-20T09:16:08.612Z,25.00
2019-06-20T09:18:40.413Z,24.67
2019-06-20T09:21:12.374Z,24.39
2019-06-20T09:23:44.311Z,24.77
2019-06-20T09:26:16.204Z,25.33
2019-06-20T09:28:50.992Z,25.75
2019-06-20T09:31:23.109Z,26.12
2019-06-20T09:33:55.821Z,24.93
2019-06-20T09:36:27.596Z,25.71
2019-06-20T09:38:59.613Z,26.04
2019-06-20T09:41:31.758Z,26.28
2019-06-20T09:44:03.515Z,26.53
2019-06-20T09:46:35.267Z,26.81
2019-06-20T09:49:07.036Z,27.09
2019-06-20T09:51:38.846Z,27.70
2019-06-20T09:54:10.593Z,27.55
2019-06-20T09:56:42.204Z,26.89
2019-06-20T09:59:27.137Z,27.53
2019-06-20T10:01:51.441Z,27.54
2019-06-20T10:04:25.871Z,27.71
2019-06-20T10:06:57.613Z,28.07
2019-06-20T10:09:29.710Z,28.28
2019-06-20T10:12:01.524Z,28.90
2019-06-20T10:14:33.398Z,28.96
2019-06-20T10:17:06.768Z,29.09
2019-06-20T10:19:39.746Z,29.23
2019-06-20T10:22:19.129Z,28.89
2019-06-20T10:24:52.059Z,28.77
2019-06-20T10:27:24.665Z,28.87
2019-06-20T10:30:10.651Z,28.64
2019-06-20T10:32:31.164Z,28.34
2019-06-20T10:35:03.018Z,28.11
2019-06-20T10:37:34.929Z,28.12
2019-06-20T10:40:10.558Z,27.93
2019-06-20T10:42:44.423Z,28.37
2019-06-20T10:45:17.485Z,28.05
2019-06-20T10:47:52.978Z,28.09
2019-06-20T10:50:28.265Z,28.29
2019-06-20T10:52:59.914Z,29.27
2019-06-20T10:55:31.874Z,28.26
2019-06-20T10:58:08.540Z,28.51
2019-06-20T11:00:50.312Z,28.96
2019-06-20T11:03:26.134Z,28.19
2019-06-20T11:06:08.615Z,28.31
2019-06-20T11:08:47.435Z,28.10
2019-06-20T11:11:19.688Z,28.31
2019-06-20T11:13:52.754Z,27.31
2019-06-20T11:16:32.569Z,28.03
2019-06-20T11:19:06.932Z,26.64
2019-06-20T11:21:39.805Z,27.35
2019-06-20T11:24:13.895Z,27.03
2019-06-20T11:26:45.982Z,27.81
2019-06-20T11:29:22.581Z,27.62
2019-06-20T11:31:55.354Z,27.37
2019-06-20T11:34:27.119Z,28.28
2019-06-20T11:36:58.877Z,28.04
2019-06-20T11:39:30.654Z,27.86
2019-06-20T11:42:02.393Z,28.18
2019-06-20T11:44:35.883Z,28.39
2019-06-20T11:47:10.340Z,28.58
2019-06-20T11:49:43.667Z,28.22
2019-06-20T11:52:17.240Z,27.35
2019-06-20T11:54:50.131Z,27.45
2019-06-20T11:57:21.831Z,27.68
2019-06-20T11:59:55.556Z,27.78
2019-06-20T12:02:36.107Z,27.95
2019-06-20T12:05:12.999Z,27.76
2019-06-20T12:07:47.714Z,27.71
2019-06-20T12:10:21.553Z,26.99
2019-06-20T12:12:57.982Z,27.42
2019-06-20T12:15:30.522Z,27.17
2019-06-20T12:18:02.270Z,26.93
2019-06-20T12:20:34.101Z,26.75
2019-06-20T12:23:05.909Z,27.01
2019-06-20T12:25:39.105Z,27.00
2019-06-20T12:28:11.164Z,26.58
2019-06-20T12:30:43.596Z,26.99
2019-06-20T12:33:18.814Z,27.44
2019-06-20T12:35:51.438Z,27.48
2019-06-20T12:38:23.082Z,27.78
2019-06-20T12:40:57.231Z,27.98
2019-06-20T12:43:29.760Z,28.29
2019-06-20T12:46:01.437Z,28.65
2019-06-20T12:48:34.149Z,28.58
2019-06-20T12:51:07.805Z,28.53
2019-06-20T12:53:48.159Z,27.96
2019-06-20T12:56:21.203Z,27.58
2019-06-20T12:58:52.888Z,27.56
2019-06-20T13:01:35.571Z,27.59
2019-06-20T13:03:58.271Z,27.74
2019-06-20T13:06:30.028Z,27.85
2019-06-20T13:09:01.761Z,27.26
2019-06-20T13:11:35.047Z,27.13
2019-06-20T13:14:06.926Z,27.33
2019-06-20T13:16:39.064Z,27.10
2019-06-20T13:19:11.283Z,27.17
2019-06-20T13:21:44.677Z,27.20
2019-06-20T13:24:16.376Z,27.93
2019-06-20T13:26:49.076Z,27.99
2019-06-20T13:29:21.713Z,27.44
2019-06-20T13:32:03.961Z,27.21
2019-06-20T13:34:28.864Z,26.98
2019-06-20T13:37:00.662Z,27.01
2019-06-20T13:39:32.712Z,26.80
2019-06-20T13:42:06.458Z,26.71
2019-06-20T13:44:39.622Z,27.15
2019-06-20T13:47:11.683Z,27.25
2019-06-20T13:49:43.405Z,26.85
2019-06-20T13:52:16.750Z,27.39
2019-06-20T13:54:49.922Z,27.17
2019-06-20T13:57:22.019Z,27.15
2019-06-20T13:59:54.532Z,27.03
2019-06-20T14:02:26.496Z,26.76
2019-06-20T14:04:59.865Z,27.51
2019-06-20T14:07:34.365Z,27.34
2019-06-20T14:10:09.195Z,27.73
2019-06-20T14:12:41.855Z,27.66
2019-06-20T14:15:14.746Z,27.69
2019-06-20T14:17:47.172Z,27.90
2019-06-20T14:20:20.410Z,28.31
2019-06-20T14:22:54.597Z,28.32
2019-06-20T14:25:26.775Z,28.38
2019-06-20T14:27:58.519Z,29.19
2019-06-20T14:30:31.390Z,29.35
2019-06-20T14:33:03.252Z,29.52
2019-06-20T14:35:35.192Z,30.07
2019-06-20T14:38:07.043Z,30.16
2019-06-20T14:40:39.516Z,30.20
2019-06-20T14:43:11.282Z,30.61
2019-06-20T14:45:43.860Z,31.02
2019-06-20T14:48:16.556Z,31.35
2019-06-20T14:50:49.520Z,31.77
2019-06-20T14:53:21.612Z,34.45
2019-06-20T14:55:53.947Z,35.78
2019-06-20T14:58:25.799Z,39.09
2019-06-20T15:00:58.786Z,43.16
2019-06-20T15:03:30.547Z,43.34
2019-06-20T15:06:02.290Z,47.44
2019-06-20T15:08:34.042Z,51.24
2019-06-20T15:11:05.969Z,54.26
2019-06-20T15:13:37.836Z,51.96
2019-06-20T15:16:09.574Z,54.76
2019-06-20T15:18:45.126Z,53.88
2019-06-20T15:21:15.302Z,54.28
2019-06-20T15:23:49.541Z,56.26
2019-06-20T15:26:23.408Z,55.65
2019-06-20T15:28:57.060Z,59.56
2019-06-20T15:31:29.345Z,58.50
2019-06-20T15:34:02.128Z,60.51
2019-06-20T15:36:34.719Z,62.39
2019-06-20T15:39:08.904Z,62.32
2019-06-20T15:41:40.639Z,59.83
2019-06-20T15:44:12.506Z,56.40
2019-06-20T15:46:44.241Z,57.84
2019-06-20T15:49:16.601Z,57.35
2019-06-20T15:51:48.642Z,57.28
2019-06-20T15:54:20.468Z,58.63
2019-06-20T15:56:52.160Z,58.39
2019-06-20T15:59:23.931Z,59.37
2019-06-20T16:01:55.742Z,59.68
2019-06-20T16:04:27.501Z,61.74
2019-06-20T16:06:59.234Z,63.31
2019-06-20T16:09:32.236Z,63.67
2019-06-20T16:12:04.126Z,60.76
2019-06-20T16:14:36.094Z,58.57
2019-06-20T16:17:08.034Z,59.43
2019-06-20T16:19:39.992Z,60.37
2019-06-20T16:22:12.020Z,59.10
2019-06-20T16:24:43.669Z,58.43
2019-06-20T16:27:15.423Z,58.20
2019-06-20T16:29:47.149Z,56.27
2019-06-20T16:32:20.125Z,56.77
2019-06-20T16:34:51.918Z,56.97
2019-06-20T16:37:24.569Z,55.86
2019-06-20T16:39:59.372Z,57.48
2019-06-20T16:42:31.223Z,56.62
2019-06-20T16:45:03.035Z,56.85
2019-06-20T16:47:34.946Z,58.68
2019-06-20T16:50:08.860Z,57.98
2019-06-20T16:52:41.687Z,59.05
2019-06-20T16:55:13.401Z,58.37
2019-06-20T16:57:45.135Z,58.16
2019-06-20T17:00:19.094Z,58.94
2019-06-20T17:02:50.837Z,57.78
2019-06-20T17:05:23.846Z,57.27
2019-06-20T17:07:55.564Z,56.80
2019-06-20T17:10:27.398Z,57.73
2019-06-20T17:12:59.014Z,57.71
2019-06-20T17:15:32.157Z,56.82
2019-06-20T17:18:03.816Z,58.01
2019-06-20T17:20:35.583Z,58.71
2019-06-20T17:23:07.415Z,58.38
2019-06-20T17:25:39.107Z,59.18
2019-06-20T17:28:10.832Z,60.71
2019-06-20T17:30:42.892Z,60.37
2019-06-20T17:33:14.653Z,59.83
2019-06-20T17:35:46.556Z,56.96
2019-06-20T17:38:19.380Z,59.31
2019-06-20T17:40:51.141Z,55.85
2019-06-20T17:43:22.899Z,56.13
2019-06-20T17:45:54.667Z,55.54
2019-06-20T17:48:27.397Z,57.01
2019-06-20T17:51:05.500Z,54.04
2019-06-20T17:53:33.999Z,55.27
2019-06-20T17:56:07.263Z,54.06
2019-06-20T17:58:38.979Z,53.55
2019-06-20T18:01:10.836Z,52.47
2019-06-20T18:03:42.870Z,52.26
2019-06-20T18:06:16.771Z,51.68
2019-06-20T18:08:48.709Z,51.39
2019-06-20T18:11:20.795Z,51.27
2019-06-20T18:13:52.920Z,50.50
2019-06-20T18:16:25.565Z,49.75
2019-06-20T18:18:57.778Z,49.66
2019-06-20T18:21:33.133Z,49.40
2019-06-20T18:24:09.266Z,48.81
2019-06-20T18:26:42.261Z,49.43
2019-06-20T18:29:18.087Z,50.13
2019-06-20T18:31:52.800Z,49.41
2019-06-20T18:34:30.618Z,50.54
2019-06-20T18:37:03.365Z,51.13
2019-06-20T18:39:36.855Z,51.24
2019-06-20T18:42:11.071Z,52.86
2019-06-20T18:44:45.173Z,53.54
2019-06-20T18:47:17.492Z,53.97
2019-06-20T18:49:49.441Z,54.87
2019-06-20T18:52:21.286Z,55.49
2019-06-20T18:54:54.693Z,55.22
2019-06-20T18:57:28.916Z,55.27
2019-06-20T19:00:01.051Z,55.40
2019-06-20T19:02:34.589Z,55.72
2019-06-20T19:05:11.889Z,56.40
2019-06-20T19:07:45.713Z,58.36
2019-06-20T19:10:22.756Z,58.84
2019-06-20T19:12:54.928Z,59.79
2019-06-20T19:15:27.228Z,60.42
2019-06-20T19:17:59.725Z,60.55
2019-06-20T19:20:31.709Z,60.45
2019-06-20T19:23:05.226Z,60.45
2019-06-20T19:25:38.150Z,61.45
2019-06-20T19:28:11.473Z,61.46
2019-06-20T19:30:54.428Z,61.99
2019-06-20T19:33:28.081Z,62.20
2019-06-20T19:36:00.106Z,63.65
2019-06-20T19:38:34.442Z,63.88
2019-06-20T19:41:12.041Z,63.82
2019-06-20T19:43:47.208Z,61.93
2019-06-20T19:46:22.504Z,60.92
2019-06-20T19:48:55.314Z,58.66
2019-06-20T19:51:45.079Z,58.10
2019-06-20T19:54:15.602Z,58.58
2019-06-20T19:56:47.548Z,58.95
2019-06-20T19:59:19.545Z,59.72
2019-06-20T20:01:51.317Z,60.60
2019-06-20T20:04:24.033Z,61.71
2019-06-20T20:06:56.261Z,62.46
2019-06-20T20:09:28.085Z,63.38
2019-06-20T20:12:02.531Z,63.54
2019-06-20T20:14:35.327Z,61.83
2019-06-20T20:17:11.377Z,60.60
2019-06-20T20:19:47.010Z,60.34
2019-06-20T20:22:31.544Z,58.99
2019-06-20T20:25:08.198Z,57.30
2019-06-20T20:27:43.150Z,58.98
2019-06-20T20:30:18.113Z,59.36
2019-06-20T20:32:50.830Z,60.69
2019-06-20T20:35:34.796Z,62.18
2019-06-20T20:37:58.577Z,62.83
2019-06-20T20:40:30.923Z,62.69
2019-06-20T20:43:03.149Z,63.35
2019-06-20T20:45:37.417Z,61.57
2019-06-20T20:48:10.806Z,60.70
2019-06-20T20:50:43.792Z,59.82
2019-06-20T20:53:22.133Z,58.77
2019-06-20T20:55:54.031Z,58.62
2019-06-20T20:58:30.534Z,59.87
2019-06-20T21:01:30.882Z,61.08
2019-06-20T21:04:04.674Z,62.39
2019-06-20T21:06:36.438Z,62.69
2019-06-20T21:09:08.840Z,62.34
2019-06-20T21:11:41.557Z,60.87
2019-06-20T21:14:13.340Z,60.39
2019-06-20T21:16:45.006Z,58.76
2019-06-20T21:19:16.773Z,57.84
2019-06-20T21:21:48.507Z,58.89
2019-06-20T21:24:20.281Z,60.47
2019-06-20T21:26:52.093Z,62.14
2019-06-20T21:29:23.848Z,62.83
2019-06-20T21:31:55.585Z,64.20
2019-06-20T21:34:28.854Z,63.76
2019-06-20T21:37:00.592Z,62.57
2019-06-20T21:39:32.355Z,61.50
2019-06-20T21:42:04.087Z,61.04
2019-06-20T21:44:36.098Z,60.18
2019-06-20T21:47:08.006Z,59.54
2019-06-20T21:49:39.773Z,58.66
2019-06-20T21:52:11.667Z,58.28
2019-06-20T21:54:43.560Z,59.40
2019-06-20T21:57:15.292Z,60.72
2019-06-20T21:59:47.061Z,62.03
2019-06-20T22:02:18.834Z,63.37
2019-06-20T22:04:54.404Z,64.22
2019-06-20T22:07:25.414Z,63.11
2019-06-20T22:09:57.243Z,62.04
2019-06-20T22:12:28.886Z,61.58
2019-06-20T22:15:01.888Z,60.32
2019-06-20T22:17:33.744Z,59.75
2019-06-20T22:20:07.659Z,58.80
2019-06-20T22:22:39.701Z,58.78
2019-06-20T22:25:11.868Z,59.82
2019-06-20T22:27:43.817Z,61.07
2019-06-20T22:30:16.689Z,62.47
2019-06-20T22:32:48.707Z,63.20
2019-06-20T22:35:22.831Z,62.84
2019-06-20T22:37:54.475Z,61.77
2019-06-20T22:40:27.883Z,61.00
2019-06-20T22:43:00.194Z,60.13
2019-06-20T22:45:32.831Z,59.02
2019-06-20T22:48:05.922Z,59.04
2019-06-20T22:50:37.914Z,59.98
2019-06-20T22:53:09.721Z,61.11
2019-06-20T22:55:41.454Z,62.25
2019-06-20T22:58:13.187Z,63.88
2019-06-20T23:00:45.804Z,64.65
2019-06-20T23:03:17.783Z,63.86
2019-06-20T23:05:49.980Z,63.15
2019-06-20T23:08:21.718Z,62.04
2019-06-20T23:10:53.494Z,61.05
2019-06-20T23:13:25.233Z,60.15
2019-06-20T23:15:56.992Z,59.57
2019-06-20T23:18:30.375Z,59.01
2019-06-20T23:21:04.861Z,58.75
2019-06-20T23:23:36.629Z,59.67
2019-06-20T23:26:10.359Z,60.45
2019-06-20T23:28:42.289Z,62.48
2019-06-20T23:31:14.057Z,63.52
2019-06-20T23:33:45.795Z,63.08
2019-06-20T23:36:17.551Z,62.53
2019-06-20T23:38:49.610Z,62.04
2019-06-20T23:41:21.359Z,60.90
2019-06-20T23:43:53.098Z,60.14
2019-06-20T23:46:25.805Z,59.24
2019-06-20T23:48:57.549Z,58.70
2019-06-20T23:51:30.897Z,59.77
2019-06-20T23:54:02.818Z,60.76
2019-06-20T23:56:35.941Z,62.25
2019-06-20T23:59:08.914Z,63.97
